»·PEaware :: UAL717 KPDX-KBOI

UAL717 :: KPDX-KBOI

FLIGHT INFORMATION

Flight Status: Arrived
Operator:
United Airlines
More flights by this operator :: More flights under this callsign
Pilot: Ty S. (2873)
Aircraft: AIRBUS A320
(A320)
More flights by this aircraft type
Origin: KPDX Portland Intl
United States
Destination: KBOI Boise Air Terminal/Gowen
United States
More flights between these airports :: More routes between these airports
Route: WHAMY4 IMB HOSTS PARMO3
File this flight plan on PilotEdge
Remarks:
Altitude:
(Current/Filed)
31,000ft
Speed:
(Current/Filed)
450kts
Departed: 24-Feb-18 10:17 AM
Arrived: 24-Feb-18 11:18 AM
Distance/Time
Traveled:
298nm/1:01
Distance/Time
To Go:
Arrived

Flight Plot

Page will automatically refresh every two minutes.

Flight plan parsing failed; only flown route is shown


Map Options




Map Legend


Flown Route
Filed Route
Departure Airport
Arrival Airport
Navaid (VOR, NDB)
Fix

Horizontal Profiles

Position Reports

Time Latitude Longitude Heading Altitude Ground
Speed
24-Feb-18 10:02 45.590044 -122.591048 209 38ft 0kts
24-Feb-18 10:03 45.590044 -122.591048 209 38ft 0kts
24-Feb-18 10:04 45.590044 -122.591048 209 38ft 0kts
24-Feb-18 10:05 45.590044 -122.591048 209 38ft 0kts
24-Feb-18 10:06 45.590044 -122.591048 209 38ft 0kts
24-Feb-18 10:07 45.590044 -122.591048 209 38ft 0kts
24-Feb-18 10:08 45.590044 -122.591048 209 38ft 0kts
24-Feb-18 10:09 45.590044 -122.591048 209 38ft 0kts
24-Feb-18 10:10 45.590044 -122.591048 209 38ft 0kts
24-Feb-18 10:11 45.590044 -122.591048 209 38ft 0kts
24-Feb-18 10:12 45.590044 -122.591048 209 38ft 0kts
24-Feb-18 10:13 45.590044 -122.591048 209 38ft 0kts
24-Feb-18 10:14 45.590506 -122.590675 209 38ft 2kts
24-Feb-18 10:15 45.590836 -122.590829 120 38ft 0kts
24-Feb-18 10:16 45.590835 -122.590829 120 38ft 0kts
24-Feb-18 10:17 45.590821 -122.590793 120 38ft 1kts
24-Feb-18 10:18 45.590281 -122.587477 99 38ft 12kts
24-Feb-18 10:19 45.588169 -122.581797 118 38ft 19kts
24-Feb-18 10:20 45.585958 -122.576178 118 38ft 19kts
24-Feb-18 10:21 45.583186 -122.569064 118 38ft 16kts
24-Feb-18 10:22 45.583678 -122.567085 299 38ft 0kts
24-Feb-18 10:23 45.583678 -122.567085 299 38ft 0kts
24-Feb-18 10:24 45.587494 -122.576940 298 39ft 135kts
24-Feb-18 10:25 45.609708 -122.632905 293 2902ft 188kts
24-Feb-18 10:26 45.634351 -122.713670 299 5871ft 251kts
24-Feb-18 10:27 45.668146 -122.799771 287 9710ft 256kts
24-Feb-18 10:28 45.623530 -122.882619 194 11805ft 360kts
24-Feb-18 10:29 45.536922 -122.811622 115 14057ft 404kts
24-Feb-18 10:30 45.488722 -122.665515 112 16408ft 421kts
24-Feb-18 10:31 45.437536 -122.513430 112 18549ft 437kts
24-Feb-18 10:32 45.383912 -122.355713 111 20492ft 451kts
24-Feb-18 10:33 45.330982 -122.200946 112 22150ft 464kts
24-Feb-18 10:34 45.273966 -122.035271 111 23274ft 470kts
24-Feb-18 10:35 45.224694 -121.862652 104 24644ft 479kts
24-Feb-18 10:36 45.178535 -121.683113 104 26041ft 490kts
24-Feb-18 10:37 45.131137 -121.500066 103 27387ft 500kts
24-Feb-18 10:38 45.083797 -121.318601 104 28456ft 512kts
24-Feb-18 10:39 45.033899 -121.128905 105 29489ft 521kts
24-Feb-18 10:40 44.983711 -120.939519 106 31082ft 514kts
24-Feb-18 10:41 44.933392 -120.751226 106 31148ft 515kts
24-Feb-18 10:42 44.883552 -120.566166 106 31129ft 515kts
24-Feb-18 10:43 44.832832 -120.379278 106 31117ft 515kts
24-Feb-18 10:44 44.784329 -120.201907 107 31096ft 515kts
24-Feb-18 10:45 44.732673 -120.014426 107 31021ft 515kts
24-Feb-18 10:46 44.680677 -119.827159 107 31018ft 516kts
24-Feb-18 10:47 44.627781 -119.640199 108 31022ft 516kts
24-Feb-18 10:48 44.573398 -119.454643 108 31026ft 517kts
24-Feb-18 10:49 44.519689 -119.272243 109 31022ft 516kts
24-Feb-18 10:50 44.464828 -119.087272 109 31015ft 516kts
24-Feb-18 10:51 44.409625 -118.902507 110 31039ft 514kts
24-Feb-18 10:52 44.354654 -118.719809 111 31023ft 507kts
24-Feb-18 10:53 44.300238 -118.540264 111 30102ft 502kts
24-Feb-18 10:54 44.246535 -118.364280 111 28818ft 488kts
24-Feb-18 10:55 44.200564 -118.214558 112 26994ft 475kts
24-Feb-18 10:56 44.149264 -118.048551 112 24883ft 461kts
24-Feb-18 10:57 44.099334 -117.887992 112 22807ft 447kts
24-Feb-18 10:58 44.050649 -117.732377 112 20756ft 433kts
24-Feb-18 10:59 44.003466 -117.582455 112 18689ft 420kts
24-Feb-18 11:00 43.957206 -117.436154 113 16586ft 409kts
24-Feb-18 11:01 43.912633 -117.295842 114 14527ft 398kts
24-Feb-18 11:02 43.871963 -117.168467 114 12621ft 387kts
24-Feb-18 11:03 43.828997 -117.034555 117 10661ft 372kts
24-Feb-18 11:04 43.789823 -116.913421 118 10046ft 319kts
24-Feb-18 11:05 43.755708 -116.808538 119 9437ft 280kts
24-Feb-18 11:06 43.725801 -116.715104 119 8641ft 257kts
24-Feb-18 11:07 43.697648 -116.627555 118 7681ft 243kts
24-Feb-18 11:08 43.674744 -116.545929 120 7247ft 212kts
24-Feb-18 11:09 43.649718 -116.475708 121 6553ft 203kts
24-Feb-18 11:10 43.625036 -116.403157 119 5362ft 212kts
24-Feb-18 11:11 43.601840 -116.335488 120 4364ft 175kts
24-Feb-18 11:12 43.584897 -116.286090 120 3573ft 125kts
24-Feb-18 11:13 43.570283 -116.243109 118 2936ft 121kts
24-Feb-18 11:14 43.557441 -116.199883 116 4801ft 132kts
24-Feb-18 11:15 43.531662 -116.151051 181 6692ft 199kts
24-Feb-18 11:16 43.508229 -116.209927 264 7031ft 209kts
24-Feb-18 11:17 43.533114 -116.284998 295 6517ft 224kts
24-Feb-18 11:18 43.563883 -116.359751 294 5532ft 225kts
24-Feb-18 11:19 43.594501 -116.434581 313 5055ft 213kts
24-Feb-18 11:20 43.630552 -116.411373 105 4529ft 170kts
24-Feb-18 11:21 43.610758 -116.361669 119 4516ft 133kts
24-Feb-18 11:22 43.595707 -116.317655 119 4073ft 122kts
24-Feb-18 11:23 43.580918 -116.274399 119 3414ft 126kts
24-Feb-18 11:24 43.566994 -116.233702 115 2880ft 89kts
24-Feb-18 11:25 43.564773 -116.224173 4 2880ft 0kts
24-Feb-18 11:26 43.566797 -116.223459 96 2880ft 7kts
24-Feb-18 11:27 43.566706 -116.219436 26 2880ft 0kts
24-Feb-18 11:28 43.566705 -116.219436 26 2880ft 0kts
24-Feb-18 11:29 43.566705 -116.219436 26 2880ft 0kts
24-Feb-18 11:30 43.566705 -116.219436 26 2880ft 0kts
24-Feb-18 11:31 43.566705 -116.219436 26 2880ft 0kts
24-Feb-18 11:32 43.566705 -116.219436 26 2880ft 0kts
24-Feb-18 11:33 43.566705 -116.219436 26 2880ft 0kts
24-Feb-18 11:34 43.566705 -116.219436 26 2880ft 0kts
24-Feb-18 11:35 43.566705 -116.219436 26 2880ft 0kts
24-Feb-18 11:36 43.566705 -116.219436 26 2880ft 0kts
24-Feb-18 11:37 43.566705 -116.219436 26 2880ft 0kts
24-Feb-18 11:38 43.566705 -116.219436 26 2880ft 0kts
24-Feb-18 11:39 43.566705 -116.219436 26 2880ft 0kts
24-Feb-18 11:40 43.566705 -116.219436 26 2880ft 0kts

Navigation Log

Ident Type
Flight plan parsing failed, navigation log unavailable